MST,Max TemperatureF,Mean TemperatureF,Min TemperatureF,Max Dew PointF,MeanDew PointF,Min DewpointF,Max Humidity, Mean Humidity, Min Humidity, Max Sea Level PressureIn, Mean Sea Level PressureIn, Min Sea Level PressureIn, Max VisibilityMiles, Mean VisibilityMiles, Min VisibilityMiles, Max Wind SpeedMPH, Mean Wind SpeedMPH, Max Gust SpeedMPH,PrecipitationIn, CloudCover, Events, WindDirDegrees
2014-1-1,33,29,25,31,26,20,100,88,75,30.39,30.24,30.04,10,5,0,22,10,25,0.33,6,Fog-Snow,256
2014-1-2,39,32,24,23,21,18,81,67,52,30.27,30.08,29.79,10,10,10,32,21,37,0.00,3,,238
2014-1-3,44,35,26,30,22,18,69,57,44,30.01,29.71,29.50,10,10,7,40,21,52,T,6,Snow,292
2014-1-4,27,18,8,20,11,5,92,83,74,30.47,30.19,29.99,10,3,0,25,7,29,0.18,8,Fog-Snow,76
2014-1-5,8,2,-4,4,-8,-17,88,68,47,30.84,30.63,30.32,10,7,1,36,15,43,0.05,4,Snow,314
2014-1-6,26,14,2,9,0,-9,69,58,46,30.57,30.32,30.10,10,10,10,35,25,41,0.00,3,,233
2014-1-7,35,30,25,25,18,10,78,64,49,30.10,30.05,30.01,10,10,10,26,14,32,T,8,Snow,231
2014-1-8,40,33,26,24,19,15,69,60,50,30.03,29.95,29.82,10,10,10,22,15,27,0.00,3,,235
2014-1-9,41,35,29,26,21,16,64,58,51,29.81,29.71,29.65,10,10,10,29,16,37,0.00,5,,250
2014-1-10,43,36,28,24,21,17,63,55,47,29.87,29.71,29.62,10,10,9,32,15,39,T,6,Snow,264
2014-1-11,49,40,30,30,24,20,70,58,45,29.85,29.56,29.34,10,10,10,43,17,55,0.00,6,,253
2014-1-12,42,37,32,25,20,16,69,55,40,29.86,29.64,29.42,10,10,10,40,22,50,0.00,4,,267
2014-1-13,52,41,30,30,25,18,92,62,32,30.23,29.87,29.68,10,8,1,55,33,67,0.02,6,Snow,310
2014-1-14,33,31,28,26,23,21,92,81,69,30.53,30.39,30.26,10,10,9,29,18,37,0.01,5,Snow,257
2014-1-15,54,41,28,25,21,18,75,51,26,30.27,30.09,29.98,10,10,10,39,24,51,0.00,4,,282
2014-1-16,44,37,30,23,19,16,69,53,36,30.43,30.35,30.24,10,10,10,22,12,27,0.00,4,,285
2014-1-17,52,41,29,24,21,18,69,50,30,30.24,30.16,30.07,10,10,10,30,20,35,0.00,3,,263
2014-1-18,45,38,30,23,22,19,69,55,40,30.27,30.15,29.99,10,10,10,31,19,38,0.00,1,,240
2014-1-19,50,44,37,22,21,18,52,42,31,30.21,29.96,29.85,10,10,10,29,18,35,0.00,6,,252
2014-1-20,43,37,30,21,19,16,61,50,39,30.48,30.36,30.25,10,10,10,29,14,35,0.00,1,,249
2014-1-21,51,42,32,25,20,15,59,43,26,30.27,30.23,30.19,10,10,9,24,11,30,T,5,Snow,319
2014-1-22,35,26,17,28,20,13,92,78,64,30.60,30.33,30.20,10,7,1,18,10,22,0.03,8,Snow,58
2014-1-23,30,23,16,17,15,13,92,73,53,30.60,30.47,30.35,10,10,10,38,20,45,0.00,5,,227
2014-1-24,54,42,29,29,22,15,58,48,38,30.34,30.26,30.20,10,10,10,31,22,37,0.00,5,,256
2014-1-25,55,44,32,28,24,20,64,50,35,30.23,30.06,29.92,10,10,10,29,20,37,0.00,3,,255
2014-1-26,46,30,13,32,16,0,78,62,45,30.41,30.18,29.87,10,10,10,33,15,45,T,7,Rain,19
2014-1-27,22,14,6,6,2,-1,80,63,45,30.49,30.43,30.36,10,10,10,14,4,17,0.00,2,,31
2014-1-28,28,18,7,6,3,-1,73,56,38,30.46,30.22,29.96,10,10,10,31,21,37,0.00,2,,231
2014-1-29,42,33,23,29,17,5,85,61,37,29.92,29.64,29.47,10,10,7,29,18,36,T,7,Rain-Snow,248
2014-1-30,23,14,4,20,10,3,92,83,73,30.09,29.87,29.59,10,3,0,20,7,23,0.18,8,Snow,74
2014-1-31,30,16,1,17,8,-2,95,71,46,30.08,29.90,29.72,10,5,0,28,12,33,0.22,6,Fog-Snow,239